Terminal Aerodrome Forecast
Issued by NWS

Home | Current Version | Previous Version | Text Only | Print | Product List | Glossary On
Versions: 1 2 3 4 5 6 7 8 9 10 11 12 13
000
FTUS42 TJSJ 262323
TAFJBQ
TAF
TJBQ 262323Z 2700/2724 09013KT P6SM VCSH FEW025 SCT035
     FM270200 10005KT P6SM FEW030 SCT050
     FM271330 07014G19KT P6SM SCT030
      AMD NOT SKED 2702/2711=

USA.gov is the U.S. government's official web portal to all federal, state and local government web resources and services.